Time;durP1;ratioP1;P1;durP2;ratioP2;P2;SDS_P1;SDS_P2;PMS_P1;PMS_P2;Temp;Humidity;BMP_temperature;BMP_pressure;BME280_temperature;BME280_humidity;BME280_pressure;Samples;Min_cycle;Max_cycle;Signal;HPM_P1;HPM_P2
2023/10/24 00:01:34;;;;;;;5.75;3.53;;;;;;;;;;5093261;28;20227;-76
2023/10/24 00:04:02;;;;;;;7.18;4.10;;;;;;;;;;5093293;28;20194;-76
2023/10/24 00:06:29;;;;;;;6.22;3.85;;;;;;;;;;5092790;28;20643;-76
2023/10/24 00:08:56;;;;;;;6.65;4.32;;;;;;;;;;5093156;28;20189;-76
2023/10/24 00:11:24;;;;;;;4.25;3.75;;;;;;;;;;5092887;28;20647;-76
2023/10/24 00:13:53;;;;;;;7.00;4.13;;;;;;;;;;5093135;28;20544;-76
2023/10/24 00:16:20;;;;;;;4.53;3.70;;;;;;;;;;5092814;28;20250;-76
2023/10/24 00:18:48;;;;;;;5.15;3.40;;;;;;;;;;5093152;28;20250;-76
2023/10/24 00:21:16;;;;;;;5.05;4.32;;;;;;;;;;5095850;28;20264;-76
2023/10/24 00:23:43;;;;;;;4.60;3.10;;;;;;;;;;5096583;28;20196;-76
2023/10/24 00:26:12;;;;;;;4.68;3.35;;;;;;;;;;5096586;28;20194;-76
2023/10/24 00:28:39;;;;;;;5.75;3.53;;;;;;;;;;5096568;28;20278;-76
2023/10/24 00:31:08;;;;;;;6.78;3.70;;;;;;;;;;5096970;28;20194;-76
2023/10/24 00:33:36;;;;;;;5.20;3.60;;;;;;;;;;5096652;28;20275;-76
2023/10/24 00:36:03;;;;;;;5.47;3.58;;;;;;;;;;5095875;28;20697;-76
2023/10/24 00:38:31;;;;;;;5.47;4.13;;;;;;;;;;5096268;28;20193;-76
2023/10/24 00:40:58;;;;;;;4.95;3.22;;;;;;;;;;5096205;28;20663;-76
2023/10/24 00:43:26;;;;;;;3.83;2.67;;;;;;;;;;5096003;28;20209;-76
2023/10/24 00:45:53;;;;;;;7.20;3.13;;;;;;;;;;5096514;28;20599;-76
2023/10/24 00:48:22;;;;;;;4.10;2.85;;;;;;;;;;5096645;28;20190;-76
2023/10/24 00:50:49;;;;;;;6.35;3.58;;;;;;;;;;5095708;28;20186;-76
2023/10/24 00:53:17;;;;;;;6.43;3.55;;;;;;;;;;5096324;28;20251;-76
2023/10/24 00:55:44;;;;;;;4.78;3.50;;;;;;;;;;5096015;28;20193;-76
2023/10/24 00:58:11;;;;;;;4.68;3.38;;;;;;;;;;5096039;28;20727;-76
2023/10/24 01:00:39;;;;;;;4.03;3.33;;;;;;;;;;5096333;28;20247;-76
2023/10/24 01:03:06;;;;;;;4.32;3.00;;;;;;;;;;5095410;28;20221;-76
2023/10/24 01:05:36;;;;;;;9.52;3.92;;;;;;;;;;5096264;28;20247;-76
2023/10/24 01:08:04;;;;;;;4.47;2.70;;;;;;;;;;5096001;28;20326;-76
2023/10/24 01:10:31;;;;;;;4.20;2.70;;;;;;;;;;5096053;28;20204;-76
2023/10/24 01:12:58;;;;;;;4.85;3.13;;;;;;;;;;5095849;28;20266;-76
2023/10/24 01:15:28;;;;;;;3.90;2.97;;;;;;;;;;5095669;28;20194;-76
2023/10/24 01:17:55;;;;;;;6.13;3.20;;;;;;;;;;5095425;28;20193;-76
2023/10/24 01:20:23;;;;;;;4.47;3.20;;;;;;;;;;5095520;28;20224;-76
2023/10/24 01:22:51;;;;;;;3.88;2.58;;;;;;;;;;5095617;28;20218;-76
2023/10/24 01:25:19;;;;;;;5.05;2.80;;;;;;;;;;5095381;28;20193;-76
2023/10/24 01:27:53;;;;;;;4.10;3.30;;;;;;;;;;5095700;28;20197;-76
2023/10/24 01:30:21;;;;;;;4.75;3.50;;;;;;;;;;5094563;28;20177;-76
2023/10/24 01:32:48;;;;;;;5.78;3.80;;;;;;;;;;5095170;28;20201;-76
2023/10/24 01:35:18;;;;;;;5.05;3.60;;;;;;;;;;5095468;28;20189;-76
2023/10/24 01:37:46;;;;;;;3.45;2.38;;;;;;;;;;5095119;28;20207;-76
2023/10/24 01:40:15;;;;;;;3.78;2.88;;;;;;;;;;5095141;28;20616;-76
2023/10/24 01:42:42;;;;;;;8.63;3.00;;;;;;;;;;5095008;28;20205;-76
2023/10/24 01:45:11;;;;;;;4.85;3.63;;;;;;;;;;5094678;28;20711;-76
2023/10/24 01:47:38;;;;;;;10.18;3.75;;;;;;;;;;5095242;28;20659;-76
2023/10/24 01:50:06;;;;;;;6.40;3.35;;;;;;;;;;5094874;28;20702;-76
2023/10/24 01:52:33;;;;;;;3.50;2.45;;;;;;;;;;5094839;28;20574;-76
2023/10/24 01:55:01;;;;;;;7.05;4.28;;;;;;;;;;5094807;28;20228;-76
2023/10/24 01:57:29;;;;;;;4.18;3.22;;;;;;;;;;5095219;28;20238;-76
2023/10/24 01:59:57;;;;;;;7.50;3.10;;;;;;;;;;5095134;28;20266;-76
2023/10/24 02:02:26;;;;;;;7.13;3.17;;;;;;;;;;5094295;28;20218;-76
2023/10/24 02:04:53;;;;;;;4.60;3.15;;;;;;;;;;5094947;28;20196;-76
2023/10/24 02:07:21;;;;;;;4.07;2.65;;;;;;;;;;5094604;28;20235;-76
2023/10/24 02:09:48;;;;;;;3.95;2.85;;;;;;;;;;5094897;28;20220;-76
2023/10/24 02:12:15;;;;;;;5.43;3.58;;;;;;;;;;5094902;28;20196;-76
2023/10/24 02:14:44;;;;;;;4.72;3.20;;;;;;;;;;5094822;28;20193;-76
2023/10/24 02:17:11;;;;;;;7.03;3.78;;;;;;;;;;5094024;28;20235;-76
2023/10/24 02:19:38;;;;;;;3.95;2.88;;;;;;;;;;5094521;28;20270;-76
2023/10/24 02:22:06;;;;;;;7.07;3.13;;;;;;;;;;5094202;28;20214;-76
2023/10/24 02:24:33;;;;;;;4.78;2.60;;;;;;;;;;5094166;28;20189;-76
2023/10/24 02:27:03;;;;;;;4.53;2.67;;;;;;;;;;5094527;28;20194;-76
2023/10/24 02:29:33;;;;;;;8.70;2.78;;;;;;;;;;5094153;28;20185;-76
2023/10/24 02:32:02;;;;;;;4.15;3.30;;;;;;;;;;5093847;28;20268;-76
2023/10/24 02:34:30;;;;;;;6.95;2.97;;;;;;;;;;5094318;28;20292;-76
2023/10/24 02:36:57;;;;;;;4.10;2.70;;;;;;;;;;5094510;28;20197;-76
2023/10/24 02:39:24;;;;;;;3.75;2.70;;;;;;;;;;5094415;28;20189;-76
2023/10/24 02:41:51;;;;;;;10.23;5.85;;;;;;;;;;5093380;28;20255;-76
2023/10/24 02:44:20;;;;;;;9.57;5.65;;;;;;;;;;5094201;28;20228;-76
2023/10/24 02:46:52;;;;;;;4.75;3.00;;;;;;;;;;5093977;28;20189;-76
2023/10/24 02:49:21;;;;;;;3.97;2.33;;;;;;;;;;5094179;28;20200;-76
2023/10/24 02:51:48;;;;;;;4.20;2.95;;;;;;;;;;5093640;28;20551;-76
2023/10/24 02:54:15;;;;;;;3.92;2.53;;;;;;;;;;5094069;28;20193;-76
2023/10/24 02:56:42;;;;;;;4.93;2.38;;;;;;;;;;5093782;28;20189;-76
2023/10/24 02:59:10;;;;;;;4.38;3.97;;;;;;;;;;5093973;28;20258;-76
2023/10/24 03:01:37;;;;;;;4.85;2.65;;;;;;;;;;5093287;28;20192;-76
2023/10/24 03:04:05;;;;;;;9.13;3.40;;;;;;;;;;5093880;28;20186;-76
2023/10/24 03:06:33;;;;;;;7.38;3.70;;;;;;;;;;5093749;28;20196;-76
2023/10/24 03:09:01;;;;;;;5.50;3.42;;;;;;;;;;5094052;28;20254;-76
2023/10/24 03:11:28;;;;;;;4.90;3.15;;;;;;;;;;5093502;28;20189;-76
2023/10/24 03:13:56;;;;;;;7.50;4.30;;;;;;;;;;5093486;28;20185;-76
2023/10/24 03:16:23;;;;;;;4.75;3.28;;;;;;;;;;5093192;28;20231;-75
2023/10/24 03:18:51;;;;;;;6.03;4.43;;;;;;;;;;5093592;28;20186;-76
2023/10/24 03:21:19;;;;;;;12.10;3.38;;;;;;;;;;5093930;28;20721;-76
2023/10/24 03:23:47;;;;;;;4.35;3.20;;;;;;;;;;5093573;28;20224;-76
2023/10/24 03:26:19;;;;;;;4.30;3.42;;;;;;;;;;5093651;28;20194;-76
2023/10/24 03:28:47;;;;;;;4.70;3.38;;;;;;;;;;5093194;28;20213;-76
2023/10/24 03:31:14;;;;;;;4.25;3.47;;;;;;;;;;5093128;28;20708;-76
2023/10/24 03:33:41;;;;;;;5.07;3.47;;;;;;;;;;5093531;28;20330;-76
2023/10/24 03:36:13;;;;;;;5.95;3.10;;;;;;;;;;5093410;28;20185;-76
2023/10/24 03:38:40;;;;;;;5.80;3.33;;;;;;;;;;5093244;28;20184;-76
2023/10/24 03:41:09;;;;;;;5.55;3.05;;;;;;;;;;5093065;28;20197;-76
2023/10/24 03:43:37;;;;;;;4.72;3.50;;;;;;;;;;5093437;28;20255;-76
2023/10/24 03:46:07;;;;;;;5.88;4.07;;;;;;;;;;5093371;28;20551;-76
2023/10/24 03:48:34;;;;;;;4.72;3.75;;;;;;;;;;5093429;28;20597;-76
2023/10/24 03:51:02;;;;;;;5.15;3.40;;;;;;;;;;5093315;28;20239;-76
2023/10/24 03:53:29;;;;;;;6.97;3.65;;;;;;;;;;5094025;28;20239;-76
2023/10/24 03:55:59;;;;;;;4.70;3.85;;;;;;;;;;5097482;28;20237;-76
2023/10/24 03:58:30;;;;;;;10.20;5.32;;;;;;;;;;5097103;28;20245;-76
2023/10/24 04:01:04;;;;;;;9.55;5.90;;;;;;;;;;5097067;28;20181;-76
2023/10/24 04:03:31;;;;;;;6.25;3.97;;;;;;;;;;5097304;28;20243;-76
2023/10/24 04:05:58;;;;;;;5.78;4.43;;;;;;;;;;5097358;28;20273;-76
2023/10/24 04:08:26;;;;;;;4.25;3.55;;;;;;;;;;5097061;28;20200;-76
2023/10/24 04:10:53;;;;;;;6.55;4.30;;;;;;;;;;5096945;28;20595;-76
2023/10/24 04:13:20;;;;;;;6.82;4.47;;;;;;;;;;5097021;28;20664;-77
2023/10/24 04:15:52;;;;;;;5.28;3.65;;;;;;;;;;5097126;28;20540;-76
2023/10/24 04:18:19;;;;;;;5.93;3.85;;;;;;;;;;5096880;28;20635;-76
2023/10/24 04:20:46;;;;;;;5.45;4.20;;;;;;;;;;5097011;28;20222;-76
2023/10/24 04:23:15;;;;;;;7.22;4.40;;;;;;;;;;5096917;28;20221;-76
2023/10/24 04:25:42;;;;;;;4.72;4.00;;;;;;;;;;5095907;28;20186;-76
2023/10/24 04:28:10;;;;;;;10.52;5.22;;;;;;;;;;5096652;28;20591;-76
2023/10/24 04:30:39;;;;;;;6.25;4.95;;;;;;;;;;5096441;28;20204;-76
2023/10/24 04:33:08;;;;;;;4.50;4.03;;;;;;;;;;5096939;28;20616;-76
2023/10/24 04:35:41;;;;;;;6.10;4.50;;;;;;;;;;5096651;28;20196;-76
2023/10/24 04:38:08;;;;;;;7.28;4.40;;;;;;;;;;5095888;28;20663;-76
2023/10/24 04:40:38;;;;;;;5.05;4.00;;;;;;;;;;5096225;28;20197;-76
2023/10/24 04:43:06;;;;;;;5.00;3.65;;;;;;;;;;5096093;28;20210;-76
2023/10/24 04:45:33;;;;;;;6.78;3.22;;;;;;;;;;5096472;28;20594;-76
2023/10/24 04:48:00;;;;;;;5.72;4.15;;;;;;;;;;5096059;28;20677;-76
2023/10/24 04:50:29;;;;;;;10.02;5.75;;;;;;;;;;5095716;28;20721;-76
2023/10/24 04:52:56;;;;;;;9.05;4.50;;;;;;;;;;5096146;28;20201;-76
2023/10/24 04:55:27;;;;;;;13.55;4.10;;;;;;;;;;5095910;28;20640;-76
2023/10/24 04:57:54;;;;;;;6.72;3.75;;;;;;;;;;5095798;28;20189;-76
2023/10/24 05:00:24;;;;;;;4.60;3.30;;;;;;;;;;5096202;28;20189;-76
2023/10/24 05:02:51;;;;;;;6.50;3.50;;;;;;;;;;5096091;28;20217;-76
2023/10/24 05:05:19;;;;;;;5.28;3.25;;;;;;;;;;5094473;28;20190;-76
2023/10/24 05:07:48;;;;;;;3.50;2.42;;;;;;;;;;5095660;28;20229;-76
2023/10/24 05:10:16;;;;;;;5.68;3.92;;;;;;;;;;5096071;28;20189;-76
2023/10/24 05:12:43;;;;;;;5.40;3.10;;;;;;;;;;5095480;28;20239;-76
2023/10/24 05:15:11;;;;;;;6.15;3.17;;;;;;;;;;5095807;28;20194;-76
2023/10/24 05:17:38;;;;;;;6.07;3.30;;;;;;;;;;5095812;28;20197;-76
2023/10/24 05:20:07;;;;;;;5.00;4.50;;;;;;;;;;5095411;28;20226;-76
2023/10/24 05:22:34;;;;;;;7.47;5.75;;;;;;;;;;5095335;28;20251;-76
2023/10/24 05:25:03;;;;;;;4.75;3.63;;;;;;;;;;5088638;28;20190;-76
2023/10/24 05:27:32;;;;;;;6.10;4.55;;;;;;;;;;5093384;28;20243;-76
2023/10/24 05:29:59;;;;;;;15.13;4.47;;;;;;;;;;5094111;28;20892;-76
2023/10/24 05:32:26;;;;;;;11.10;3.78;;;;;;;;;;5093457;28;20193;-76
2023/10/24 05:34:54;;;;;;;8.07;5.20;;;;;;;;;;5093613;28;20540;-76
2023/10/24 05:37:21;;;;;;;6.88;3.47;;;;;;;;;;5093452;28;20261;-76
2023/10/24 05:39:48;;;;;;;4.22;3.53;;;;;;;;;;5093550;28;20596;-76
2023/10/24 05:42:17;;;;;;;6.68;3.20;;;;;;;;;;5093738;28;20193;-76
2023/10/24 05:44:44;;;;;;;4.45;3.50;;;;;;;;;;5093374;28;20217;-76
2023/10/24 05:47:12;;;;;;;12.88;4.10;;;;;;;;;;5093287;28;20239;-76
2023/10/24 05:49:39;;;;;;;6.18;3.65;;;;;;;;;;5093436;28;20246;-76
2023/10/24 05:52:07;;;;;;;5.55;4.13;;;;;;;;;;5092849;28;20186;-76
2023/10/24 05:54:36;;;;;;;4.70;3.80;;;;;;;;;;5088857;28;20658;-76
2023/10/24 05:57:03;;;;;;;6.82;4.15;;;;;;;;;;5093201;28;20772;-76
2023/10/24 05:59:34;;;;;;;5.68;3.47;;;;;;;;;;5092357;28;20193;-76
2023/10/24 06:02:01;;;;;;;5.70;3.78;;;;;;;;;;5093310;28;20186;-76
2023/10/24 06:04:29;;;;;;;8.48;4.00;;;;;;;;;;5093213;28;20515;-76
2023/10/24 06:06:56;;;;;;;11.10;4.30;;;;;;;;;;5089378;28;20193;-76
2023/10/24 06:09:23;;;;;;;8.18;4.10;;;;;;;;;;5092201;28;20276;-76
2023/10/24 06:11:50;;;;;;;6.97;4.13;;;;;;;;;;5092899;28;20248;-76
2023/10/24 06:14:18;;;;;;;5.70;3.97;;;;;;;;;;5092594;28;20572;-76
2023/10/24 06:16:46;;;;;;;6.80;3.53;;;;;;;;;;5092716;28;20589;-76
2023/10/24 06:19:13;;;;;;;8.23;4.45;;;;;;;;;;5092237;28;20236;-76
2023/10/24 06:21:41;;;;;;;6.75;3.42;;;;;;;;;;5091297;28;20247;-76
2023/10/24 06:24:08;;;;;;;6.35;4.10;;;;;;;;;;5091162;28;20209;-76
2023/10/24 06:26:38;;;;;;;8.98;3.40;;;;;;;;;;5091329;28;20251;-78
2023/10/24 06:29:06;;;;;;;6.85;3.72;;;;;;;;;;5091712;28;20208;-79
2023/10/24 06:31:33;;;;;;;10.75;3.42;;;;;;;;;;5091867;28;20198;-76
2023/10/24 06:34:03;;;;;;;6.35;3.10;;;;;;;;;;5090821;28;20189;-76
2023/10/24 06:36:30;;;;;;;14.60;4.15;;;;;;;;;;5092063;28;20199;-76
2023/10/24 06:38:58;;;;;;;8.13;4.25;;;;;;;;;;5092581;28;20193;-76
2023/10/24 06:41:25;;;;;;;6.90;3.67;;;;;;;;;;5092136;28;20217;-76
2023/10/24 06:43:52;;;;;;;9.07;3.67;;;;;;;;;;5091186;28;20209;-76
2023/10/24 06:46:19;;;;;;;12.93;3.90;;;;;;;;;;5090588;28;20225;-76
2023/10/24 06:48:46;;;;;;;5.95;3.10;;;;;;;;;;5090468;28;20247;-76
2023/10/24 06:51:15;;;;;;;9.07;3.65;;;;;;;;;;5093038;28;20607;-76
2023/10/24 06:53:42;;;;;;;9.38;4.15;;;;;;;;;;5093076;28;20232;-76
2023/10/24 06:56:09;;;;;;;13.73;4.10;;;;;;;;;;5093829;28;20193;-76
2023/10/24 06:58:37;;;;;;;7.53;4.78;;;;;;;;;;5093670;28;20270;-76
2023/10/24 07:01:05;;;;;;;10.90;7.35;;;;;;;;;;5093388;28;20639;-75
2023/10/24 07:03:32;;;;;;;14.45;7.00;;;;;;;;;;5087777;28;20252;-76
2023/10/24 07:06:00;;;;;;;10.90;6.53;;;;;;;;;;5092685;28;20284;-76
2023/10/24 07:08:28;;;;;;;11.68;6.03;;;;;;;;;;5092703;28;20609;-76
2023/10/24 07:10:56;;;;;;;14.75;6.00;;;;;;;;;;5092671;28;20194;-76
2023/10/24 07:13:23;;;;;;;12.25;5.60;;;;;;;;;;5092635;28;20202;-76
2023/10/24 07:15:50;;;;;;;15.63;5.93;;;;;;;;;;5092847;28;20193;-75
2023/10/24 07:18:17;;;;;;;15.68;6.90;;;;;;;;;;5092699;28;20270;-76
2023/10/24 07:20:44;;;;;;;13.82;6.60;;;;;;;;;;5092338;28;20680;-76
2023/10/24 07:23:12;;;;;;;11.80;6.60;;;;;;;;;;5088788;28;20205;-76
2023/10/24 07:25:41;;;;;;;14.77;6.05;;;;;;;;;;5091681;28;20275;-76
2023/10/24 07:28:08;;;;;;;10.82;4.53;;;;;;;;;;5092416;28;20197;-76
2023/10/24 07:30:38;;;;;;;8.40;3.92;;;;;;;;;;5092694;28;20217;-76
2023/10/24 07:33:05;;;;;;;7.85;3.20;;;;;;;;;;5092780;28;20246;-76
2023/10/24 07:35:34;;;;;;;13.98;3.60;;;;;;;;;;5092095;28;20197;-76
2023/10/24 07:38:01;;;;;;;6.32;4.07;;;;;;;;;;5092250;28;20237;-76
2023/10/24 07:40:31;;;;;;;10.00;4.20;;;;;;;;;;5091939;28;20200;-76
2023/10/24 07:42:59;;;;;;;10.25;3.28;;;;;;;;;;5092445;28;20190;-76
2023/10/24 07:45:27;;;;;;;7.50;4.03;;;;;;;;;;5092102;28;20273;-76
2023/10/24 07:47:54;;;;;;;9.23;3.35;;;;;;;;;;5092195;28;20198;-76
2023/10/24 07:50:21;;;;;;;13.05;5.20;;;;;;;;;;5092002;28;20284;-75
2023/10/24 07:52:49;;;;;;;8.90;4.07;;;;;;;;;;5091986;28;20196;-75
2023/10/24 07:55:16;;;;;;;14.00;3.42;;;;;;;;;;5092482;28;20435;-76
2023/10/24 07:57:43;;;;;;;7.28;3.65;;;;;;;;;;5091775;28;20254;-76
2023/10/24 08:00:12;;;;;;;16.30;4.63;;;;;;;;;;5091959;28;20233;-76
2023/10/24 08:02:40;;;;;;;8.80;4.43;;;;;;;;;;5092309;28;20202;-76
2023/10/24 08:05:08;;;;;;;8.00;3.28;;;;;;;;;;5092126;28;20526;-76
2023/10/24 08:07:36;;;;;;;10.57;4.30;;;;;;;;;;5091790;28;20198;-76
2023/10/24 08:10:07;;;;;;;12.63;3.72;;;;;;;;;;5091646;28;20193;-76
2023/10/24 08:12:34;;;;;;;5.00;4.22;;;;;;;;;;5092634;28;20223;-76
2023/10/24 08:15:01;;;;;;;15.18;4.28;;;;;;;;;;5092379;28;20221;-76
2023/10/24 08:17:30;;;;;;;13.98;6.28;;;;;;;;;;5091872;28;20644;-76
2023/10/24 08:19:58;;;;;;;12.40;5.40;;;;;;;;;;5091332;28;20257;-76
2023/10/24 08:22:25;;;;;;;10.40;4.00;;;;;;;;;;5091700;28;20856;-76
2023/10/24 08:24:53;;;;;;;16.77;4.87;;;;;;;;;;5092243;28;20943;-76
2023/10/24 08:27:20;;;;;;;12.30;4.23;;;;;;;;;;5092201;28;20444;-76
2023/10/24 08:29:47;;;;;;;10.53;4.20;;;;;;;;;;5091565;28;20855;-76
2023/10/24 08:32:14;;;;;;;12.67;4.00;;;;;;;;;;5092103;28;20439;-76
2023/10/24 08:34:43;;;;;;;8.30;3.97;;;;;;;;;;5092094;28;20435;-76
2023/10/24 08:37:10;;;;;;;7.30;3.70;;;;;;;;;;5091707;28;20458;-76
2023/10/24 08:39:39;;;;;;;8.53;4.83;;;;;;;;;;5091683;28;20497;-76
2023/10/24 08:42:07;;;;;;;7.03;3.50;;;;;;;;;;5095085;28;20432;-76
2023/10/24 08:44:34;;;;;;;9.47;4.20;;;;;;;;;;5095537;28;20505;-76
2023/10/24 08:47:03;;;;;;;15.37;4.57;;;;;;;;;;5095111;28;20428;-76
2023/10/24 08:49:31;;;;;;;14.87;5.20;;;;;;;;;;5094781;28;20444;-76
2023/10/24 08:52:00;;;;;;;12.20;4.50;;;;;;;;;;5095449;28;20447;-76
2023/10/24 08:54:27;;;;;;;14.67;6.03;;;;;;;;;;5095234;28;20474;-76
2023/10/24 08:56:54;;;;;;;12.23;5.33;;;;;;;;;;5095056;28;20906;-76
2023/10/24 08:59:22;;;;;;;18.33;7.03;;;;;;;;;;5091496;28;20431;-77
2023/10/24 09:01:50;;;;;;;18.50;7.27;;;;;;;;;;5095039;28;20455;-76
2023/10/24 09:04:18;;;;;;;14.23;6.93;;;;;;;;;;5095165;28;20505;-76
2023/10/24 09:06:46;;;;;;;9.30;5.00;;;;;;;;;;5095006;28;20444;-76
2023/10/24 09:09:15;;;;;;;11.10;5.27;;;;;;;;;;5095118;28;20450;-76
2023/10/24 09:11:56;;;;;;;13.10;5.00;;;;;;;;;;5094655;28;20480;-76
2023/10/24 09:14:24;;;;;;;5.90;4.07;;;;;;;;;;5091166;28;20435;-76
2023/10/24 09:16:54;;;;;;;9.98;4.72;;;;;;;;;;5094758;28;20435;-76
2023/10/24 09:19:29;;;;;;;12.05;4.72;;;;;;;;;;5094923;28;20189;-76
2023/10/24 09:21:56;;;;;;;7.97;4.30;;;;;;;;;;5093473;28;20185;-77
2023/10/24 09:24:25;;;;;;;10.67;4.03;;;;;;;;;;5094423;28;20489;-76
2023/10/24 09:26:54;;;;;;;6.33;4.60;;;;;;;;;;5094825;28;20454;-76
2023/10/24 09:29:21;;;;;;;9.97;4.03;;;;;;;;;;5094606;28;20454;-76
2023/10/24 09:31:49;;;;;;;12.53;5.47;;;;;;;;;;5094323;28;20439;-76
2023/10/24 09:34:17;;;;;;;8.43;5.53;;;;;;;;;;5094994;28;20432;-76
2023/10/24 09:36:44;;;;;;;18.67;13.90;;;;;;;;;;5090941;28;20475;-76
2023/10/24 09:39:11;;;;;;;17.60;12.10;;;;;;;;;;5094819;28;20444;-76
2023/10/24 09:41:41;;;;;;;15.80;12.23;;;;;;;;;;5094273;28;20479;-77
2023/10/24 09:44:10;;;;;;;17.57;7.97;;;;;;;;;;5094589;28;20578;-76
2023/10/24 09:46:38;;;;;;;11.33;4.83;;;;;;;;;;5094634;28;20790;-76
2023/10/24 09:49:05;;;;;;;9.30;4.53;;;;;;;;;;5094202;28;20478;-76
2023/10/24 09:51:35;;;;;;;13.40;4.80;;;;;;;;;;5093372;28;20436;-77
2023/10/24 09:54:03;;;;;;;10.47;6.17;;;;;;;;;;5093741;28;20451;-76
2023/10/24 09:56:30;;;;;;;10.47;5.03;;;;;;;;;;5094272;28;20793;-77
2023/10/24 09:58:59;;;;;;;8.80;5.60;;;;;;;;;;5094388;28;20436;-77
2023/10/24 10:01:28;;;;;;;14.87;5.07;;;;;;;;;;5090859;28;20455;-77
2023/10/24 10:03:58;;;;;;;6.97;3.93;;;;;;;;;;5094153;28;20443;-77
2023/10/24 10:06:27;;;;;;;6.90;4.20;;;;;;;;;;5094700;28;20436;-77
2023/10/24 10:08:55;;;;;;;9.40;4.60;;;;;;;;;;5094647;28;20492;-77
2023/10/24 10:11:23;;;;;;;7.57;4.83;;;;;;;;;;5094148;28;20481;-77
2023/10/24 10:13:53;;;;;;;6.43;4.53;;;;;;;;;;5094518;28;20435;-77
2023/10/24 10:16:36;;;;;;;10.60;5.30;;;;;;;;;;5094294;28;20435;-77
2023/10/24 10:19:17;;;;;;;15.10;4.53;;;;;;;;;;5094695;28;20424;-77
2023/10/24 10:21:49;;;;;;;8.80;4.20;;;;;;;;;;5094170;28;20817;-76
2023/10/24 10:24:32;;;;;;;9.03;4.97;;;;;;;;;;5094500;28;20455;-77
2023/10/24 10:27:03;;;;;;;9.30;4.40;;;;;;;;;;5094435;28;20451;-77
2023/10/24 10:29:36;;;;;;;7.13;4.10;;;;;;;;;;5094071;28;20436;-77
2023/10/24 10:32:13;;;;;;;6.50;3.87;;;;;;;;;;5094489;28;20768;-77
2023/10/24 10:34:42;;;;;;;10.40;4.70;;;;;;;;;;5093873;28;20686;-76
2023/10/24 10:37:10;;;;;;;9.90;4.60;;;;;;;;;;5094171;28;20435;-76
2023/10/24 10:39:38;;;;;;;8.50;4.30;;;;;;;;;;5094376;28;20455;-77
2023/10/24 10:42:06;;;;;;;8.23;4.03;;;;;;;;;;5094096;28;20485;-77
2023/10/24 10:44:37;;;;;;;10.83;4.90;;;;;;;;;;5093621;28;20525;-77
2023/10/24 10:47:05;;;;;;;7.10;4.60;;;;;;;;;;5093651;28;20467;-77
2023/10/24 10:49:40;;;;;;;8.70;4.57;;;;;;;;;;5093964;28;20800;-77
2023/10/24 10:52:10;;;;;;;12.90;4.83;;;;;;;;;;5093514;28;20427;-77
2023/10/24 10:54:42;;;;;;;12.53;4.43;;;;;;;;;;5092684;28;20449;-77
2023/10/24 10:57:10;;;;;;;5.87;3.63;;;;;;;;;;5071166;28;20433;-77
2023/10/24 10:59:43;;;;;;;6.90;4.53;;;;;;;;;;5082548;28;20467;-77
2023/10/24 11:02:19;;;;;;;10.90;5.30;;;;;;;;;;5093607;28;20420;-77
2023/10/24 11:04:48;;;;;;;9.70;4.67;;;;;;;;;;5072578;28;20460;-77
2023/10/24 11:07:15;;;;;;;9.10;4.50;;;;;;;;;;5072888;28;20435;-77
2023/10/24 11:09:42;;;;;;;11.10;4.47;;;;;;;;;;5086989;28;20497;-76
2023/10/24 11:12:26;;;;;;;7.10;4.97;;;;;;;;;;5091530;28;20458;-76
2023/10/24 11:15:13;;;;;;;8.40;5.20;;;;;;;;;;5093149;28;20843;-76
2023/10/24 11:17:41;;;;;;;9.70;5.47;;;;;;;;;;5092532;28;20995;-77
2023/10/24 11:20:10;;;;;;;8.80;5.07;;;;;;;;;;5093377;28;20463;-76
2023/10/24 11:22:37;;;;;;;9.83;5.80;;;;;;;;;;5092517;28;20434;-77
2023/10/24 11:25:22;;;;;;;8.13;5.33;;;;;;;;;;5059767;28;20471;-76
2023/10/24 11:27:51;;;;;;;9.60;6.07;;;;;;;;;;5092144;28;20489;-76
2023/10/24 11:30:18;;;;;;;6.87;4.67;;;;;;;;;;5092958;28;20523;-77
2023/10/24 11:32:45;;;;;;;7.57;4.27;;;;;;;;;;5092517;28;20925;-76
2023/10/24 11:35:14;;;;;;;11.33;4.53;;;;;;;;;;5093497;28;20797;-77
2023/10/24 11:37:42;;;;;;;10.97;4.63;;;;;;;;;;5091875;28;20488;-77
2023/10/24 11:40:10;;;;;;;9.40;4.70;;;;;;;;;;5093013;28;20427;-77
2023/10/24 11:42:37;;;;;;;10.17;5.00;;;;;;;;;;5093430;28;20439;-77
2023/10/24 11:45:05;;;;;;;10.00;5.07;;;;;;;;;;5093213;28;20467;-77
2023/10/24 11:47:32;;;;;;;6.77;4.70;;;;;;;;;;5092929;28;20493;-77
2023/10/24 11:49:59;;;;;;;8.17;5.40;;;;;;;;;;5093300;28;20490;-77
2023/10/24 11:52:28;;;;;;;8.30;4.67;;;;;;;;;;5093163;28;20431;-77
2023/10/24 11:54:55;;;;;;;10.20;6.20;;;;;;;;;;5093144;28;20500;-77
2023/10/24 11:57:23;;;;;;;9.90;5.10;;;;;;;;;;5092822;28;20505;-77
2023/10/24 11:59:50;;;;;;;7.90;5.27;;;;;;;;;;5093108;28;20431;-77
2023/10/24 12:02:17;;;;;;;10.77;6.57;;;;;;;;;;5093185;28;20876;-77
2023/10/24 12:04:50;;;;;;;9.13;5.50;;;;;;;;;;5093055;28;20469;-77
2023/10/24 12:07:17;;;;;;;11.00;5.10;;;;;;;;;;5093039;28;20507;-77
2023/10/24 12:09:46;;;;;;;12.73;5.93;;;;;;;;;;5092991;28;20835;-77
2023/10/24 12:12:14;;;;;;;10.50;5.40;;;;;;;;;;5093001;28;20427;-77
2023/10/24 12:14:42;;;;;;;6.57;5.27;;;;;;;;;;5094000;28;20424;-77
2023/10/24 12:17:10;;;;;;;12.43;6.70;;;;;;;;;;5096821;28;20435;-77
2023/10/24 12:19:37;;;;;;;12.60;6.33;;;;;;;;;;5096811;28;20463;-77
2023/10/24 12:22:04;;;;;;;12.23;6.63;;;;;;;;;;5096781;28;20488;-77
2023/10/24 12:24:32;;;;;;;10.70;5.40;;;;;;;;;;5096704;28;20566;-77
2023/10/24 12:27:00;;;;;;;10.73;5.30;;;;;;;;;;5096773;28;20439;-77
2023/10/24 12:29:27;;;;;;;17.00;4.73;;;;;;;;;;5096665;28;20443;-77
2023/10/24 12:31:54;;;;;;;9.90;5.23;;;;;;;;;;5096400;28;20485;-77
2023/10/24 12:34:22;;;;;;;7.13;4.40;;;;;;;;;;5096647;28;20797;-77
2023/10/24 12:36:51;;;;;;;12.07;4.40;;;;;;;;;;5096462;28;20504;-77
2023/10/24 12:39:21;;;;;;;14.80;5.27;;;;;;;;;;5096633;28;20439;-77
2023/10/24 12:41:48;;;;;;;8.03;4.30;;;;;;;;;;5096450;28;20573;-77
2023/10/24 12:44:17;;;;;;;7.83;4.67;;;;;;;;;;5096594;28;20476;-77
2023/10/24 12:46:45;;;;;;;12.20;4.37;;;;;;;;;;5096296;28;20821;-77
2023/10/24 12:49:12;;;;;;;12.73;4.90;;;;;;;;;;5096297;28;20439;-77
2023/10/24 12:51:40;;;;;;;12.00;4.57;;;;;;;;;;5096209;28;20435;-77
2023/10/24 12:54:08;;;;;;;9.00;5.03;;;;;;;;;;5095889;28;20811;-77
2023/10/24 12:56:35;;;;;;;7.77;5.60;;;;;;;;;;5096112;28;20467;-77
2023/10/24 12:59:03;;;;;;;9.67;6.10;;;;;;;;;;5095801;28;20432;-77
2023/10/24 13:01:32;;;;;;;9.50;6.03;;;;;;;;;;5096017;28;20432;-77
2023/10/24 13:03:59;;;;;;;16.90;7.03;;;;;;;;;;5096031;28;20436;-77
2023/10/24 13:06:26;;;;;;;12.23;6.87;;;;;;;;;;5095593;28;20540;-77
2023/10/24 13:08:54;;;;;;;11.87;8.13;;;;;;;;;;5095686;28;20951;-77
2023/10/24 13:11:21;;;;;;;11.30;7.73;;;;;;;;;;5096020;28;20485;-77
2023/10/24 13:13:48;;;;;;;13.57;6.87;;;;;;;;;;5096044;28;20766;-77
2023/10/24 13:16:15;;;;;;;15.80;7.30;;;;;;;;;;5095864;28;20471;-77
2023/10/24 13:18:44;;;;;;;11.07;7.67;;;;;;;;;;5095795;28;20509;-77
2023/10/24 13:21:11;;;;;;;11.93;8.13;;;;;;;;;;5095538;28;20798;-77
2023/10/24 13:23:38;;;;;;;9.03;7.87;;;;;;;;;;5095618;28;20496;-77
2023/10/24 13:26:05;;;;;;;12.43;7.60;;;;;;;;;;5094837;28;20499;-77
2023/10/24 13:28:33;;;;;;;11.33;8.67;;;;;;;;;;5095521;28;20439;-77
2023/10/24 13:31:00;;;;;;;15.90;9.27;;;;;;;;;;5095503;28;20505;-77
2023/10/24 13:33:27;;;;;;;11.47;8.57;;;;;;;;;;5095148;28;20420;-77
2023/10/24 13:35:56;;;;;;;13.93;6.97;;;;;;;;;;5095355;28;20504;-77
2023/10/24 13:38:23;;;;;;;11.17;7.37;;;;;;;;;;5095313;28;20834;-77
2023/10/24 13:40:53;;;;;;;11.87;7.50;;;;;;;;;;5095285;28;20424;-77
2023/10/24 13:43:20;;;;;;;8.80;7.20;;;;;;;;;;5094810;28;20463;-77
2023/10/24 13:45:47;;;;;;;9.67;7.57;;;;;;;;;;5095065;28;20820;-77
2023/10/24 13:48:14;;;;;;;9.60;7.53;;;;;;;;;;5095281;28;20431;-77
2023/10/24 13:50:42;;;;;;;9.80;7.00;;;;;;;;;;5094645;28;20440;-77
2023/10/24 13:53:10;;;;;;;8.60;6.13;;;;;;;;;;5094952;28;20428;-77
2023/10/24 13:55:37;;;;;;;9.20;6.53;;;;;;;;;;5095022;28;20488;-77
2023/10/24 13:58:05;;;;;;;6.03;5.13;;;;;;;;;;5094916;28;20474;-77
2023/10/24 14:00:32;;;;;;;11.50;5.57;;;;;;;;;;5094883;28;20439;-77
2023/10/24 14:03:00;;;;;;;9.53;5.30;;;;;;;;;;5094514;28;20459;-77
2023/10/24 14:05:27;;;;;;;13.83;5.07;;;;;;;;;;5095005;28;20562;-77
2023/10/24 14:07:54;;;;;;;8.17;6.77;;;;;;;;;;5094434;28;20443;-77
2023/10/24 14:10:23;;;;;;;6.43;5.20;;;;;;;;;;5094528;28;20447;-77
2023/10/24 14:12:50;;;;;;;8.77;4.40;;;;;;;;;;5094396;28;20436;-77
2023/10/24 14:15:17;;;;;;;8.23;4.50;;;;;;;;;;5094344;28;21006;-77
2023/10/24 14:17:45;;;;;;;6.07;3.73;;;;;;;;;;5094641;28;20468;-77
2023/10/24 14:20:12;;;;;;;7.57;4.40;;;;;;;;;;5094272;28;21035;-77
2023/10/24 14:22:40;;;;;;;5.67;4.23;;;;;;;;;;5094100;28;20430;-77
2023/10/24 14:25:08;;;;;;;6.33;4.50;;;;;;;;;;5094451;28;20431;-77
2023/10/24 14:27:37;;;;;;;8.13;3.97;;;;;;;;;;5093980;28;20511;-77
2023/10/24 14:30:04;;;;;;;8.27;4.23;;;;;;;;;;5093976;28;20428;-77
2023/10/24 14:32:34;;;;;;;5.37;4.23;;;;;;;;;;5093942;28;20446;-77
2023/10/24 14:35:01;;;;;;;5.93;3.97;;;;;;;;;;5094500;28;20809;-78
2023/10/24 14:37:28;;;;;;;5.30;3.40;;;;;;;;;;5093562;28;20485;-77
2023/10/24 14:39:55;;;;;;;6.27;3.80;;;;;;;;;;5093394;28;20463;-77
2023/10/24 14:42:23;;;;;;;6.03;3.30;;;;;;;;;;5093750;28;20596;-77
2023/10/24 14:44:51;;;;;;;3.93;2.70;;;;;;;;;;5093680;28;20463;-77